createdAt,value
2023-03-23T00:02:16.117Z,99.80
2023-03-23T00:04:50.300Z,99.90
2023-03-23T00:07:22.295Z,99.90
2023-03-23T00:09:54.043Z,99.90
2023-03-23T00:12:34.138Z,99.90
2023-03-23T00:15:06.642Z,99.90
2023-03-23T00:17:36.836Z,99.90
2023-03-23T00:20:12.711Z,99.90
2023-03-23T00:22:43.935Z,99.90
2023-03-23T00:25:13.841Z,99.90
2023-03-23T00:27:43.908Z,99.90
2023-03-23T00:30:18.829Z,99.90
2023-03-23T00:32:49.575Z,99.90
2023-03-23T00:35:22.050Z,99.90
2023-03-23T00:37:52.076Z,99.90
2023-03-23T00:40:23.281Z,99.90
2023-03-23T00:42:53.129Z,99.90
2023-03-23T00:45:23.033Z,99.90
2023-03-23T00:47:53.046Z,99.90
2023-03-23T00:50:33.811Z,99.90
2023-03-23T00:53:08.481Z,99.90
2023-03-23T00:55:38.616Z,99.90
2023-03-23T00:58:09.286Z,99.90
2023-03-23T01:00:40.715Z,99.90
2023-03-23T01:03:19.191Z,99.90
2023-03-23T01:05:52.896Z,99.90
2023-03-23T01:08:23.658Z,99.90
2023-03-23T01:10:55.080Z,99.90
2023-03-23T01:13:24.942Z,99.90
2023-03-23T01:15:54.750Z,99.90
2023-03-23T01:18:33.779Z,99.90
2023-03-23T01:21:11.332Z,99.90
2023-03-23T01:23:43.371Z,99.90
2023-03-23T01:26:15.574Z,99.90
2023-03-23T01:28:46.474Z,99.90
2023-03-23T01:31:18.065Z,99.90
2023-03-23T01:33:48.867Z,99.90
2023-03-23T01:36:27.617Z,99.90
2023-03-23T01:38:59.232Z,99.90
2023-03-23T01:41:29.251Z,99.90
2023-03-23T01:44:02.654Z,99.90
2023-03-23T01:46:38.199Z,99.90
2023-03-23T01:49:12.746Z,99.90
2023-03-23T01:51:49.591Z,99.90
2023-03-23T01:54:22.841Z,99.90
2023-03-23T01:56:57.872Z,99.90
2023-03-23T01:59:29.459Z,99.90
2023-03-23T02:02:27.894Z,99.90
2023-03-23T02:05:08.146Z,99.90
2023-03-23T02:07:41.391Z,99.90
2023-03-23T02:10:12.758Z,99.90
2023-03-23T02:12:43.207Z,99.90
2023-03-23T02:15:14.836Z,99.90
2023-03-23T02:17:54.122Z,99.90
2023-03-23T02:20:46.327Z,99.90
2023-03-23T02:23:31.142Z,99.90
2023-03-23T02:26:14.188Z,99.90
2023-03-23T02:29:12.342Z,99.90
2023-03-23T02:31:51.065Z,99.90
2023-03-23T02:34:29.159Z,99.90
2023-03-23T02:37:04.459Z,99.90
2023-03-23T02:39:37.496Z,99.90
2023-03-23T02:42:14.204Z,99.90
2023-03-23T02:44:47.976Z,99.90
2023-03-23T02:47:23.213Z,99.90
2023-03-23T02:50:00.036Z,99.90
2023-03-23T02:52:33.338Z,99.90
2023-03-23T02:55:05.005Z,99.90
2023-03-23T02:57:40.360Z,99.90
2023-03-23T03:00:17.940Z,99.90
2023-03-23T03:02:53.566Z,99.90
2023-03-23T03:05:36.609Z,99.90
2023-03-23T03:08:20.217Z,99.90
2023-03-23T03:10:59.637Z,99.90
2023-03-23T03:13:41.830Z,99.90
2023-03-23T03:16:20.645Z,99.90
2023-03-23T03:18:56.613Z,99.90
2023-03-23T03:21:33.358Z,99.90
2023-03-23T03:24:09.138Z,99.90
2023-03-23T03:26:39.377Z,99.90
2023-03-23T03:29:26.921Z,99.90
2023-03-23T03:31:59.739Z,99.90
2023-03-23T03:34:33.307Z,99.90
2023-03-23T03:37:07.877Z,99.90
2023-03-23T03:39:39.589Z,99.90
2023-03-23T03:42:09.836Z,99.90
2023-03-23T03:44:39.684Z,99.90
2023-03-23T03:47:09.540Z,99.90
2023-03-23T03:49:39.467Z,99.90
2023-03-23T03:52:11.902Z,99.90
2023-03-23T03:54:45.926Z,99.90
2023-03-23T03:57:15.911Z,99.90
2023-03-23T04:00:14.856Z,99.90
2023-03-23T04:02:48.554Z,99.90
2023-03-23T04:05:21.889Z,99.90
2023-03-23T04:08:09.712Z,99.90
2023-03-23T04:10:40.521Z,99.90
2023-03-23T04:13:11.585Z,99.90
2023-03-23T04:16:07.299Z,99.90
2023-03-23T04:18:43.853Z,99.90
2023-03-23T04:21:23.359Z,99.90
2023-03-23T04:24:00.144Z,99.90
2023-03-23T04:26:33.723Z,99.90
2023-03-23T04:29:10.765Z,99.90
2023-03-23T04:31:59.688Z,99.90
2023-03-23T04:34:36.495Z,99.90
2023-03-23T04:37:06.629Z,99.90
2023-03-23T04:39:41.151Z,99.90
2023-03-23T04:42:12.417Z,99.90
2023-03-23T04:44:58.628Z,99.90
2023-03-23T04:47:41.334Z,99.90
2023-03-23T04:50:21.824Z,99.90
2023-03-23T04:52:52.534Z,99.90
2023-03-23T04:55:25.120Z,99.90
2023-03-23T04:58:01.327Z,99.90
2023-03-23T05:00:39.772Z,99.90
2023-03-23T05:03:11.109Z,99.90
2023-03-23T05:05:41.612Z,99.90
2023-03-23T05:08:12.401Z,99.90
2023-03-23T05:10:53.730Z,99.90
2023-03-23T05:13:25.917Z,99.90
2023-03-23T05:15:58.460Z,99.90
2023-03-23T05:18:28.745Z,99.90
2023-03-23T05:20:58.583Z,99.90
2023-03-23T05:23:31.900Z,99.90
2023-03-23T05:26:11.667Z,99.90
2023-03-23T05:28:43.038Z,99.90
2023-03-23T05:31:20.331Z,99.90
2023-03-23T05:33:50.904Z,99.90
2023-03-23T05:36:30.395Z,99.90
2023-03-23T05:39:12.578Z,99.90
2023-03-23T05:42:01.502Z,99.90
2023-03-23T05:44:43.571Z,99.90
2023-03-23T05:47:14.576Z,99.90
2023-03-23T05:49:50.470Z,99.90
2023-03-23T05:52:24.970Z,99.90
2023-03-23T05:54:56.509Z,99.90
2023-03-23T05:57:30.239Z,99.90
2023-03-23T06:00:14.557Z,99.90
2023-03-23T06:02:47.119Z,99.90
2023-03-23T06:05:23.359Z,99.90
2023-03-23T06:07:58.013Z,99.90
2023-03-23T06:10:29.373Z,99.90
2023-03-23T06:13:05.365Z,99.90
2023-03-23T06:15:48.661Z,99.90
2023-03-23T06:18:44.305Z,99.90
2023-03-23T06:21:30.189Z,99.90
2023-03-23T06:24:04.688Z,99.90
2023-03-23T06:26:37.536Z,99.90
2023-03-23T06:29:14.706Z,99.90
2023-03-23T06:31:51.731Z,99.90
2023-03-23T06:34:22.174Z,99.90
2023-03-23T06:37:10.561Z,99.90
2023-03-23T06:39:49.458Z,99.90
2023-03-23T06:42:27.880Z,99.90
2023-03-23T06:45:22.500Z,99.90
2023-03-23T06:47:57.242Z,99.90
2023-03-23T06:50:27.455Z,99.90
2023-03-23T06:52:57.476Z,99.90
2023-03-23T06:55:29.230Z,99.90
2023-03-23T06:58:00.786Z,99.90
2023-03-23T07:00:33.771Z,99.90
2023-03-23T07:03:05.063Z,99.90
2023-03-23T07:05:36.787Z,99.90
2023-03-23T07:08:08.519Z,99.90
2023-03-23T07:11:00.412Z,99.90
2023-03-23T07:13:32.513Z,99.90
2023-03-23T07:16:09.407Z,99.90
2023-03-23T07:18:39.392Z,99.90
2023-03-23T07:21:11.274Z,99.90
2023-03-23T07:23:42.688Z,99.90
2023-03-23T07:26:16.122Z,99.90
2023-03-23T07:28:52.701Z,99.90
2023-03-23T07:31:40.192Z,99.90
2023-03-23T07:34:10.401Z,99.90
2023-03-23T07:37:00.587Z,99.90
2023-03-23T07:39:33.084Z,99.90
2023-03-23T07:42:04.361Z,99.90
2023-03-23T07:44:52.781Z,99.90
2023-03-23T07:47:25.295Z,99.90
2023-03-23T07:50:04.755Z,99.90
2023-03-23T07:52:40.731Z,99.90
2023-03-23T07:55:18.679Z,99.90
2023-03-23T07:57:58.676Z,99.90
2023-03-23T08:00:29.690Z,99.90
2023-03-23T08:03:03.703Z,99.80
2023-03-23T08:06:12.600Z,98.90
2023-03-23T08:09:08.167Z,99.80
2023-03-23T08:11:57.093Z,98.20
2023-03-23T08:15:00.476Z,97.80
2023-03-23T08:17:30.289Z,97.60
2023-03-23T08:20:26.614Z,96.80
2023-03-23T08:23:08.671Z,96.10
2023-03-23T08:25:57.248Z,96.40
2023-03-23T08:28:47.197Z,96.00
2023-03-23T08:31:49.268Z,95.60
2023-03-23T08:34:34.732Z,95.90
2023-03-23T08:37:27.301Z,95.50
2023-03-23T08:40:20.419Z,94.80
2023-03-23T08:43:00.943Z,95.00
2023-03-23T08:45:50.234Z,94.70
2023-03-23T08:48:41.090Z,95.10
2023-03-23T08:51:29.991Z,94.40
2023-03-23T08:54:15.430Z,94.60
2023-03-23T08:57:04.832Z,95.00
2023-03-23T08:59:55.264Z,95.30
2023-03-23T09:02:46.456Z,95.20
2023-03-23T09:05:26.258Z,96.20
2023-03-23T09:08:19.825Z,96.60
2023-03-23T09:10:53.107Z,96.90
2023-03-23T09:13:25.301Z,97.00
2023-03-23T09:15:55.618Z,97.50
2023-03-23T09:18:25.805Z,97.40
2023-03-23T09:20:58.001Z,97.00
2023-03-23T09:23:28.272Z,96.80
2023-03-23T09:26:00.798Z,96.50
2023-03-23T09:28:32.394Z,96.80
2023-03-23T09:31:02.307Z,97.20
2023-03-23T09:33:37.336Z,96.60
2023-03-23T09:36:17.736Z,96.30
2023-03-23T09:38:47.833Z,96.20
2023-03-23T09:41:40.928Z,96.10
2023-03-23T09:44:21.123Z,95.90
2023-03-23T09:47:02.726Z,96.40
2023-03-23T09:49:42.361Z,96.80
2023-03-23T09:52:16.588Z,96.30
2023-03-23T09:54:48.032Z,96.60
2023-03-23T09:57:29.693Z,96.80
2023-03-23T10:00:06.129Z,97.00
2023-03-23T10:02:47.194Z,97.00
2023-03-23T10:05:30.750Z,97.00
2023-03-23T10:08:01.039Z,97.20
2023-03-23T10:10:41.576Z,97.50
2023-03-23T10:13:22.996Z,97.20
2023-03-23T10:15:54.006Z,97.30
2023-03-23T10:18:30.829Z,97.20
2023-03-23T10:21:04.454Z,97.90
2023-03-23T10:23:55.895Z,97.80
2023-03-23T10:26:35.209Z,97.30
2023-03-23T10:29:16.662Z,96.50
2023-03-23T10:31:49.536Z,96.40
2023-03-23T10:34:24.503Z,96.20
2023-03-23T10:37:07.570Z,95.80
2023-03-23T10:39:48.277Z,95.90
2023-03-23T10:42:26.533Z,95.70
2023-03-23T10:45:00.178Z,95.80
2023-03-23T10:47:30.907Z,96.10
2023-03-23T10:50:03.750Z,95.90
2023-03-23T10:52:38.783Z,96.30
2023-03-23T10:55:12.666Z,96.30
2023-03-23T10:57:44.391Z,96.20
2023-03-23T11:00:27.792Z,96.30
2023-03-23T11:03:05.150Z,96.20
2023-03-23T11:05:40.838Z,95.70
2023-03-23T11:08:17.123Z,95.80
2023-03-23T11:10:54.870Z,94.70
2023-03-23T11:13:27.292Z,94.90
2023-03-23T11:15:59.739Z,94.80
2023-03-23T11:18:38.587Z,94.10
2023-03-23T11:21:11.246Z,94.10
2023-03-23T11:23:43.368Z,94.20
2023-03-23T11:26:18.410Z,94.30
2023-03-23T11:28:51.532Z,94.70
2023-03-23T11:31:26.474Z,94.60
2023-03-23T11:34:05.845Z,95.20
2023-03-23T11:36:39.914Z,94.80
2023-03-23T11:39:24.654Z,95.30
2023-03-23T11:42:06.869Z,94.90
2023-03-23T11:44:45.775Z,94.80
2023-03-23T11:47:28.643Z,95.10
2023-03-23T11:50:06.810Z,95.30
2023-03-23T11:52:41.895Z,95.80
2023-03-23T11:55:18.548Z,95.60
2023-03-23T11:57:49.344Z,95.40
2023-03-23T12:00:22.106Z,95.20
2023-03-23T12:03:23.028Z,95.00
2023-03-23T12:06:01.733Z,94.60
2023-03-23T12:08:50.284Z,94.40
2023-03-23T12:11:27.730Z,93.70
2023-03-23T12:14:15.094Z,93.90
2023-03-23T12:16:56.846Z,94.00
2023-03-23T12:19:35.694Z,94.20
2023-03-23T12:22:23.198Z,94.00
2023-03-23T12:25:04.638Z,93.90
2023-03-23T12:27:41.976Z,93.80
2023-03-23T12:30:24.831Z,94.10
2023-03-23T12:33:15.262Z,94.20
2023-03-23T12:35:57.353Z,93.70
2023-03-23T12:38:51.918Z,93.70
2023-03-23T12:41:27.388Z,93.50
2023-03-23T12:44:03.059Z,93.60
2023-03-23T12:46:53.851Z,94.00
2023-03-23T12:49:29.548Z,92.90
2023-03-23T12:52:05.385Z,92.70
2023-03-23T12:54:44.847Z,92.80
2023-03-23T12:57:21.358Z,93.20
2023-03-23T12:59:56.581Z,92.80
2023-03-23T13:02:29.670Z,92.20
2023-03-23T13:05:05.353Z,91.90
2023-03-23T13:07:39.797Z,91.50
2023-03-23T13:10:23.549Z,91.20
2023-03-23T13:12:55.167Z,90.80
2023-03-23T13:15:38.973Z,91.40
2023-03-23T13:18:23.753Z,91.00
2023-03-23T13:21:03.153Z,91.00
2023-03-23T13:23:37.944Z,90.80
2023-03-23T13:26:12.665Z,90.70
2023-03-23T13:29:03.013Z,91.20
2023-03-23T13:31:34.874Z,91.00
2023-03-23T13:34:08.304Z,91.10
2023-03-23T13:36:42.428Z,91.20
2023-03-23T13:39:25.279Z,91.60
2023-03-23T13:42:09.136Z,91.70
2023-03-23T13:44:48.888Z,91.80
2023-03-23T13:47:32.399Z,91.90
2023-03-23T13:50:04.292Z,92.10
2023-03-23T13:52:42.201Z,91.80
2023-03-23T13:55:23.043Z,92.00
2023-03-23T13:57:58.831Z,92.10
2023-03-23T14:00:38.167Z,92.10
2023-03-23T14:03:17.988Z,92.00
2023-03-23T14:05:49.678Z,91.70
2023-03-23T14:08:27.693Z,91.50
2023-03-23T14:11:04.113Z,91.70
2023-03-23T14:13:44.383Z,91.40
2023-03-23T14:16:20.770Z,91.30
2023-03-23T14:18:57.430Z,91.10
2023-03-23T14:21:36.306Z,91.20
2023-03-23T14:24:08.753Z,91.10
2023-03-23T14:26:40.065Z,91.20
2023-03-23T14:29:14.491Z,91.20
2023-03-23T14:31:45.225Z,91.50
2023-03-23T14:34:18.758Z,91.50
2023-03-23T14:36:48.951Z,91.60
2023-03-23T14:39:25.237Z,91.80
2023-03-23T14:41:56.773Z,92.10
2023-03-23T14:44:32.919Z,91.70
2023-03-23T14:47:06.817Z,91.50
2023-03-23T14:49:41.974Z,91.60
2023-03-23T14:52:14.332Z,91.50
2023-03-23T14:54:45.649Z,91.40
2023-03-23T14:57:18.235Z,91.50
2023-03-23T14:59:52.125Z,91.00
2023-03-23T15:02:33.656Z,90.70
2023-03-23T15:05:06.554Z,90.80
2023-03-23T15:07:38.874Z,91.20
2023-03-23T15:10:12.308Z,91.00
2023-03-23T15:12:42.416Z,91.30
2023-03-23T15:15:25.426Z,91.20
2023-03-23T15:17:55.750Z,90.90
2023-03-23T15:20:28.580Z,90.80
2023-03-23T15:22:59.308Z,90.60
2023-03-23T15:25:34.399Z,90.60
2023-03-23T15:28:18.224Z,90.40
2023-03-23T15:30:55.284Z,90.50
2023-03-23T15:33:28.927Z,90.70
2023-03-23T15:36:00.870Z,90.70
2023-03-23T15:38:34.683Z,90.70
2023-03-23T15:41:07.357Z,90.80
2023-03-23T15:43:38.626Z,91.00
2023-03-23T15:46:24.953Z,91.30
2023-03-23T15:48:57.073Z,91.40
2023-03-23T15:51:29.859Z,91.30
2023-03-23T15:54:05.670Z,91.50
2023-03-23T15:56:38.964Z,91.70
2023-03-23T15:59:08.887Z,92.00
2023-03-23T16:01:43.821Z,92.80
2023-03-23T16:04:17.215Z,92.20
2023-03-23T16:06:48.184Z,92.10
2023-03-23T16:09:20.796Z,92.00
2023-03-23T16:11:51.111Z,92.00
2023-03-23T16:14:20.965Z,92.10
2023-03-23T16:16:54.921Z,92.30
2023-03-23T16:19:24.835Z,92.40
2023-03-23T16:21:54.709Z,92.30
2023-03-23T16:24:24.553Z,93.20
2023-03-23T16:26:54.466Z,92.90
2023-03-23T16:29:43.397Z,92.90
2023-03-23T16:32:16.780Z,93.20
2023-03-23T16:34:46.674Z,93.30
2023-03-23T16:37:16.873Z,93.30
2023-03-23T16:39:46.726Z,93.60
2023-03-23T16:42:16.738Z,93.80
2023-03-23T16:44:48.934Z,93.70
2023-03-23T16:47:23.531Z,93.80
2023-03-23T16:49:54.451Z,93.90
2023-03-23T16:52:25.478Z,94.10
2023-03-23T16:54:55.555Z,93.80
2023-03-23T16:57:25.973Z,94.10
2023-03-23T16:59:58.563Z,94.10
2023-03-23T17:02:31.276Z,94.30
2023-03-23T17:05:01.950Z,94.40
2023-03-23T17:07:31.972Z,94.60
2023-03-23T17:10:01.835Z,94.70
2023-03-23T17:12:31.750Z,95.00
2023-03-23T17:15:01.663Z,95.40
2023-03-23T17:17:34.453Z,95.10
2023-03-23T17:20:04.643Z,95.50
2023-03-23T17:22:35.048Z,95.50
2023-03-23T17:25:05.250Z,95.60
2023-03-23T17:27:35.103Z,95.90
2023-03-23T17:30:05.011Z,95.90
2023-03-23T17:32:37.846Z,96.60
2023-03-23T17:35:09.619Z,97.40
2023-03-23T17:37:40.175Z,96.90
2023-03-23T17:40:13.037Z,96.70
2023-03-23T17:42:43.591Z,97.30
2023-03-23T17:45:13.517Z,96.90
2023-03-23T17:47:46.123Z,97.10
2023-03-23T17:50:16.604Z,97.00
2023-03-23T17:52:46.487Z,97.10
2023-03-23T17:55:16.371Z,97.50
2023-03-23T17:57:46.705Z,97.40
2023-03-23T18:00:17.590Z,97.30
2023-03-23T18:02:50.105Z,97.20
2023-03-23T18:05:20.156Z,97.60
2023-03-23T18:07:50.298Z,97.70
2023-03-23T18:10:20.388Z,97.50
2023-03-23T18:12:52.196Z,97.60
2023-03-23T18:15:22.560Z,98.00
2023-03-23T18:18:00.843Z,98.20
2023-03-23T18:20:30.955Z,98.00
2023-03-23T18:23:01.135Z,97.90
2023-03-23T18:25:31.060Z,98.20
2023-03-23T18:28:04.451Z,98.20
2023-03-23T18:30:35.786Z,98.40
2023-03-23T18:33:08.253Z,98.40
2023-03-23T18:35:38.144Z,98.10
2023-03-23T18:38:08.748Z,98.60
2023-03-23T18:40:38.646Z,98.40
2023-03-23T18:43:08.499Z,99.10
2023-03-23T18:45:38.578Z,98.50
2023-03-23T18:48:12.320Z,98.90
2023-03-23T18:50:42.281Z,98.90
2023-03-23T18:53:14.678Z,99.20
2023-03-23T18:55:45.008Z,99.50
2023-03-23T18:58:16.391Z,99.50
2023-03-23T19:00:46.715Z,99.50
2023-03-23T19:03:19.209Z,99.90
2023-03-23T19:05:50.217Z,99.60
2023-03-23T19:08:20.099Z,99.90
2023-03-23T19:10:50.163Z,99.90
2023-03-23T19:13:20.170Z,99.90
2023-03-23T19:15:50.173Z,99.90
2023-03-23T19:18:23.321Z,99.90
2023-03-23T19:21:13.385Z,99.90
2023-03-23T19:23:44.662Z,99.90
2023-03-23T19:26:24.690Z,99.90
2023-03-23T19:29:24.399Z,99.90
2023-03-23T19:31:46.295Z,99.90
2023-03-23T19:34:19.949Z,99.90
2023-03-23T19:36:54.913Z,99.90
2023-03-23T19:39:29.550Z,99.90
2023-03-23T19:41:59.572Z,99.90
2023-03-23T19:44:29.525Z,99.90
2023-03-23T19:46:59.540Z,99.90
2023-03-23T19:49:32.240Z,99.90
2023-03-23T19:52:06.455Z,99.90
2023-03-23T19:54:41.004Z,99.90
2023-03-23T19:57:12.186Z,99.90
2023-03-23T19:59:42.805Z,99.90
2023-03-23T20:02:14.334Z,99.90
2023-03-23T20:04:48.089Z,99.90
2023-03-23T20:07:18.018Z,99.90
2023-03-23T20:09:48.596Z,99.90
2023-03-23T20:12:18.624Z,99.90
2023-03-23T20:14:48.496Z,99.90
2023-03-23T20:17:18.422Z,99.90
2023-03-23T20:19:50.971Z,99.90
2023-03-23T20:22:20.865Z,99.90
2023-03-23T20:24:51.229Z,99.90
2023-03-23T20:27:22.900Z,99.90
2023-03-23T20:29:53.853Z,99.90
2023-03-23T20:32:23.850Z,99.90
2023-03-23T20:34:57.227Z,99.90
2023-03-23T20:37:27.171Z,99.90
2023-03-23T20:39:58.058Z,99.90
2023-03-23T20:42:29.574Z,99.90
2023-03-23T20:44:59.515Z,99.90
2023-03-23T20:47:31.516Z,99.90
2023-03-23T20:50:06.061Z,99.90
2023-03-23T20:52:40.268Z,99.90
2023-03-23T20:55:10.844Z,99.90
2023-03-23T20:57:42.291Z,99.90
2023-03-23T21:00:16.421Z,99.90
2023-03-23T21:02:49.802Z,99.90
2023-03-23T21:05:22.888Z,99.90
2023-03-23T21:07:53.038Z,99.90
2023-03-23T21:10:25.785Z,99.90
2023-03-23T21:12:56.662Z,99.90
2023-03-23T21:15:27.247Z,99.90
2023-03-23T21:17:57.184Z,99.90
2023-03-23T21:20:30.083Z,99.90
2023-03-23T21:23:00.295Z,99.90
2023-03-23T21:25:33.926Z,99.90
2023-03-23T21:28:06.869Z,99.90
2023-03-23T21:30:36.759Z,99.90
2023-03-23T21:33:08.420Z,99.90
2023-03-23T21:35:41.875Z,99.90
2023-03-23T21:38:14.456Z,99.90
2023-03-23T21:40:45.147Z,99.90
2023-03-23T21:43:17.097Z,99.90
2023-03-23T21:45:48.141Z,99.90
2023-03-23T21:48:18.100Z,99.90
2023-03-23T21:50:50.914Z,99.90
2023-03-23T21:53:21.303Z,99.90
2023-03-23T21:55:53.282Z,99.90
2023-03-23T21:58:26.916Z,99.90
2023-03-23T22:00:59.245Z,99.90
2023-03-23T22:03:32.424Z,99.90
2023-03-23T22:06:11.611Z,99.90
2023-03-23T22:08:42.929Z,99.90
2023-03-23T22:11:15.662Z,99.90
2023-03-23T22:13:45.870Z,99.90
2023-03-23T22:16:18.035Z,99.90
2023-03-23T22:18:49.052Z,99.90
2023-03-23T22:21:23.024Z,99.90
2023-03-23T22:23:52.885Z,99.90
2023-03-23T22:26:24.014Z,99.90
2023-03-23T22:28:54.238Z,99.90
2023-03-23T22:31:26.658Z,99.90
2023-03-23T22:33:58.128Z,99.90
2023-03-23T22:36:33.409Z,99.90
2023-03-23T22:39:04.247Z,99.90
2023-03-23T22:41:36.950Z,99.90
2023-03-23T22:44:06.989Z,99.90
2023-03-23T22:46:36.917Z,99.90
2023-03-23T22:49:07.005Z,99.90
2023-03-23T22:51:39.680Z,99.90
2023-03-23T22:54:09.891Z,99.90
2023-03-23T22:56:39.891Z,99.90
2023-03-23T22:59:11.164Z,99.90
2023-03-23T23:01:41.032Z,99.90
2023-03-23T23:04:11.376Z,99.90
2023-03-23T23:06:43.966Z,99.90
2023-03-23T23:09:13.813Z,99.90
2023-03-23T23:11:43.728Z,99.90
2023-03-23T23:14:13.649Z,99.90
2023-03-23T23:16:44.749Z,99.90
2023-03-23T23:19:14.852Z,99.90
2023-03-23T23:21:47.325Z,99.90
2023-03-23T23:24:17.224Z,99.90
2023-03-23T23:26:47.413Z,99.90
2023-03-23T23:29:17.825Z,99.90
2023-03-23T23:31:47.743Z,99.90
2023-03-23T23:34:17.587Z,99.90
2023-03-23T23:36:50.313Z,99.90
2023-03-23T23:39:20.188Z,99.90
2023-03-23T23:41:50.060Z,99.90
2023-03-23T23:44:19.956Z,99.90
2023-03-23T23:46:49.849Z,99.90
2023-03-23T23:49:23.045Z,99.90
2023-03-23T23:51:56.579Z,99.90
2023-03-23T23:54:29.765Z,99.90
2023-03-23T23:57:00.174Z,99.90
2023-03-23T23:59:30.720Z,99.90
